sensor_id;sensor_type;location;lat;lon;timestamp;P1;durP1;ratioP1;P2;durP2;ratioP2
41946;SDS011;27638;42.184;24.848;2023-05-23T00:02:04;6.28;;;4.72;;
41946;SDS011;27638;42.184;24.848;2023-05-23T00:04:32;8.15;;;5.10;;
41946;SDS011;27638;42.184;24.848;2023-05-23T00:07:00;8.18;;;5.20;;
41946;SDS011;27638;42.184;24.848;2023-05-23T00:09:28;8.52;;;4.88;;
41946;SDS011;27638;42.184;24.848;2023-05-23T00:11:54;7.82;;;4.95;;
41946;SDS011;27638;42.184;24.848;2023-05-23T00:14:20;6.80;;;4.97;;
41946;SDS011;27638;42.184;24.848;2023-05-23T00:16:45;8.32;;;5.05;;
41946;SDS011;27638;42.184;24.848;2023-05-23T00:19:13;8.38;;;4.78;;
41946;SDS011;27638;42.184;24.848;2023-05-23T00:21:39;6.30;;;5.07;;
41946;SDS011;27638;42.184;24.848;2023-05-23T00:24:12;6.68;;;4.93;;
41946;SDS011;27638;42.184;24.848;2023-05-23T00:26:38;9.80;;;5.05;;
41946;SDS011;27638;42.184;24.848;2023-05-23T00:29:03;5.95;;;4.80;;
41946;SDS011;27638;42.184;24.848;2023-05-23T00:31:29;7.18;;;5.10;;
41946;SDS011;27638;42.184;24.848;2023-05-23T00:33:55;7.35;;;4.53;;
41946;SDS011;27638;42.184;24.848;2023-05-23T00:36:20;5.80;;;4.45;;
41946;SDS011;27638;42.184;24.848;2023-05-23T00:38:48;6.28;;;4.85;;
41946;SDS011;27638;42.184;24.848;2023-05-23T00:41:13;6.03;;;4.78;;
41946;SDS011;27638;42.184;24.848;2023-05-23T00:43:39;5.65;;;4.70;;
41946;SDS011;27638;42.184;24.848;2023-05-23T00:46:05;7.47;;;4.95;;
41946;SDS011;27638;42.184;24.848;2023-05-23T00:48:31;7.93;;;5.80;;
41946;SDS011;27638;42.184;24.848;2023-05-23T00:50:57;6.68;;;5.40;;
41946;SDS011;27638;42.184;24.848;2023-05-23T00:53:23;8.77;;;5.20;;
41946;SDS011;27638;42.184;24.848;2023-05-23T00:55:48;8.38;;;5.50;;
41946;SDS011;27638;42.184;24.848;2023-05-23T00:58:14;6.63;;;4.55;;
41946;SDS011;27638;42.184;24.848;2023-05-23T01:00:41;7.38;;;4.70;;
41946;SDS011;27638;42.184;24.848;2023-05-23T01:03:09;9.60;;;5.10;;
41946;SDS011;27638;42.184;24.848;2023-05-23T01:05:41;6.22;;;4.63;;
41946;SDS011;27638;42.184;24.848;2023-05-23T01:08:08;6.38;;;4.50;;
41946;SDS011;27638;42.184;24.848;2023-05-23T01:10:33;10.52;;;5.80;;
41946;SDS011;27638;42.184;24.848;2023-05-23T01:15:27;7.15;;;5.03;;
41946;SDS011;27638;42.184;24.848;2023-05-23T01:20:33;6.38;;;4.70;;
41946;SDS011;27638;42.184;24.848;2023-05-23T01:28:34;6.53;;;4.32;;
41946;SDS011;27638;42.184;24.848;2023-05-23T01:31:02;5.38;;;3.90;;
41946;SDS011;27638;42.184;24.848;2023-05-23T01:33:31;6.05;;;4.00;;
41946;SDS011;27638;42.184;24.848;2023-05-23T01:35:57;4.50;;;3.75;;
41946;SDS011;27638;42.184;24.848;2023-05-23T01:38:25;6.80;;;3.80;;
41946;SDS011;27638;42.184;24.848;2023-05-23T01:40:52;4.32;;;3.42;;
41946;SDS011;27638;42.184;24.848;2023-05-23T01:43:17;5.15;;;3.78;;
41946;SDS011;27638;42.184;24.848;2023-05-23T01:45:43;6.47;;;3.70;;
41946;SDS011;27638;42.184;24.848;2023-05-23T01:48:08;5.10;;;3.60;;
41946;SDS011;27638;42.184;24.848;2023-05-23T01:50:37;6.43;;;3.88;;
41946;SDS011;27638;42.184;24.848;2023-05-23T01:53:03;6.07;;;3.50;;
41946;SDS011;27638;42.184;24.848;2023-05-23T01:55:29;6.68;;;4.05;;
41946;SDS011;27638;42.184;24.848;2023-05-23T01:57:55;6.00;;;3.72;;
41946;SDS011;27638;42.184;24.848;2023-05-23T02:00:21;7.13;;;3.55;;
41946;SDS011;27638;42.184;24.848;2023-05-23T02:02:47;7.03;;;3.65;;
41946;SDS011;27638;42.184;24.848;2023-05-23T02:05:12;6.43;;;3.90;;
41946;SDS011;27638;42.184;24.848;2023-05-23T02:07:38;6.65;;;4.93;;
41946;SDS011;27638;42.184;24.848;2023-05-23T02:10:06;4.88;;;3.88;;
41946;SDS011;27638;42.184;24.848;2023-05-23T02:12:32;4.85;;;3.92;;
41946;SDS011;27638;42.184;24.848;2023-05-23T02:14:57;4.20;;;3.20;;
41946;SDS011;27638;42.184;24.848;2023-05-23T02:17:23;5.63;;;3.70;;
41946;SDS011;27638;42.184;24.848;2023-05-23T02:19:48;5.72;;;3.38;;
41946;SDS011;27638;42.184;24.848;2023-05-23T02:22:14;6.13;;;3.28;;
41946;SDS011;27638;42.184;24.848;2023-05-23T02:24:40;5.20;;;3.70;;
41946;SDS011;27638;42.184;24.848;2023-05-23T02:27:05;5.80;;;3.70;;
41946;SDS011;27638;42.184;24.848;2023-05-23T02:29:31;4.43;;;3.35;;
41946;SDS011;27638;42.184;24.848;2023-05-23T02:31:56;5.93;;;3.70;;
41946;SDS011;27638;42.184;24.848;2023-05-23T02:34:22;5.82;;;3.58;;
41946;SDS011;27638;42.184;24.848;2023-05-23T02:36:47;5.40;;;3.70;;
41946;SDS011;27638;42.184;24.848;2023-05-23T02:39:13;4.85;;;3.40;;
41946;SDS011;27638;42.184;24.848;2023-05-23T02:41:38;7.53;;;3.28;;
41946;SDS011;27638;42.184;24.848;2023-05-23T02:44:04;6.10;;;4.15;;
41946;SDS011;27638;42.184;24.848;2023-05-23T02:46:29;5.38;;;3.63;;
41946;SDS011;27638;42.184;24.848;2023-05-23T02:48:55;4.93;;;3.40;;
41946;SDS011;27638;42.184;24.848;2023-05-23T02:51:20;4.95;;;3.72;;
41946;SDS011;27638;42.184;24.848;2023-05-23T02:53:46;4.18;;;3.78;;
41946;SDS011;27638;42.184;24.848;2023-05-23T02:56:11;5.70;;;3.63;;
41946;SDS011;27638;42.184;24.848;2023-05-23T02:58:37;6.03;;;4.13;;
41946;SDS011;27638;42.184;24.848;2023-05-23T03:01:03;4.90;;;3.40;;
41946;SDS011;27638;42.184;24.848;2023-05-23T03:03:29;4.38;;;3.50;;
41946;SDS011;27638;42.184;24.848;2023-05-23T03:05:58;5.88;;;3.58;;
41946;SDS011;27638;42.184;24.848;2023-05-23T03:08:23;4.70;;;3.35;;
41946;SDS011;27638;42.184;24.848;2023-05-23T03:10:49;4.97;;;3.47;;
41946;SDS011;27638;42.184;24.848;2023-05-23T03:13:15;6.72;;;3.60;;
41946;SDS011;27638;42.184;24.848;2023-05-23T03:15:40;5.68;;;3.60;;
41946;SDS011;27638;42.184;24.848;2023-05-23T03:18:06;6.13;;;3.33;;
41946;SDS011;27638;42.184;24.848;2023-05-23T03:20:31;6.78;;;4.30;;
41946;SDS011;27638;42.184;24.848;2023-05-23T03:22:57;8.43;;;3.88;;
41946;SDS011;27638;42.184;24.848;2023-05-23T03:25:22;5.38;;;3.63;;
41946;SDS011;27638;42.184;24.848;2023-05-23T03:27:48;5.63;;;3.97;;
41946;SDS011;27638;42.184;24.848;2023-05-23T03:30:13;5.88;;;4.22;;
41946;SDS011;27638;42.184;24.848;2023-05-23T03:32:39;4.45;;;3.95;;
41946;SDS011;27638;42.184;24.848;2023-05-23T03:35:05;5.88;;;3.63;;
41946;SDS011;27638;42.184;24.848;2023-05-23T03:37:31;5.38;;;3.53;;
41946;SDS011;27638;42.184;24.848;2023-05-23T03:39:56;5.47;;;3.50;;
41946;SDS011;27638;42.184;24.848;2023-05-23T03:42:21;4.68;;;3.60;;
41946;SDS011;27638;42.184;24.848;2023-05-23T03:44:47;4.35;;;3.47;;
41946;SDS011;27638;42.184;24.848;2023-05-23T03:47:12;5.03;;;3.70;;
41946;SDS011;27638;42.184;24.848;2023-05-23T03:49:38;3.92;;;3.38;;
41946;SDS011;27638;42.184;24.848;2023-05-23T03:52:03;4.68;;;3.42;;
41946;SDS011;27638;42.184;24.848;2023-05-23T03:54:29;6.45;;;3.70;;
41946;SDS011;27638;42.184;24.848;2023-05-23T03:56:54;5.80;;;4.00;;
41946;SDS011;27638;42.184;24.848;2023-05-23T03:59:19;5.30;;;3.60;;
41946;SDS011;27638;42.184;24.848;2023-05-23T04:01:45;4.22;;;3.20;;
41946;SDS011;27638;42.184;24.848;2023-05-23T04:04:10;3.65;;;3.30;;
41946;SDS011;27638;42.184;24.848;2023-05-23T04:06:36;4.93;;;3.75;;
41946;SDS011;27638;42.184;24.848;2023-05-23T04:09:02;5.60;;;3.45;;
41946;SDS011;27638;42.184;24.848;2023-05-23T04:11:27;5.03;;;3.60;;
41946;SDS011;27638;42.184;24.848;2023-05-23T04:13:54;6.00;;;3.58;;
41946;SDS011;27638;42.184;24.848;2023-05-23T04:16:19;5.70;;;3.30;;
41946;SDS011;27638;42.184;24.848;2023-05-23T04:18:46;5.13;;;3.70;;
41946;SDS011;27638;42.184;24.848;2023-05-23T04:21:12;4.75;;;3.42;;
41946;SDS011;27638;42.184;24.848;2023-05-23T04:23:37;8.05;;;4.10;;
41946;SDS011;27638;42.184;24.848;2023-05-23T04:26:03;4.90;;;3.70;;
41946;SDS011;27638;42.184;24.848;2023-05-23T04:28:30;5.80;;;3.40;;
41946;SDS011;27638;42.184;24.848;2023-05-23T04:30:56;4.78;;;3.20;;
41946;SDS011;27638;42.184;24.848;2023-05-23T04:33:22;3.88;;;3.13;;
41946;SDS011;27638;42.184;24.848;2023-05-23T04:35:48;4.13;;;3.47;;
41946;SDS011;27638;42.184;24.848;2023-05-23T04:38:13;5.38;;;4.03;;
41946;SDS011;27638;42.184;24.848;2023-05-23T04:40:38;5.10;;;3.40;;
41946;SDS011;27638;42.184;24.848;2023-05-23T04:43:04;5.15;;;3.40;;
41946;SDS011;27638;42.184;24.848;2023-05-23T04:45:29;5.25;;;3.90;;
41946;SDS011;27638;42.184;24.848;2023-05-23T04:47:55;5.85;;;3.70;;
41946;SDS011;27638;42.184;24.848;2023-05-23T04:50:21;5.00;;;4.07;;
41946;SDS011;27638;42.184;24.848;2023-05-23T04:52:47;4.90;;;3.97;;
41946;SDS011;27638;42.184;24.848;2023-05-23T04:55:13;5.47;;;3.30;;
41946;SDS011;27638;42.184;24.848;2023-05-23T04:57:38;4.07;;;3.40;;
41946;SDS011;27638;42.184;24.848;2023-05-23T05:00:04;4.15;;;3.75;;
41946;SDS011;27638;42.184;24.848;2023-05-23T05:02:34;6.35;;;3.03;;
41946;SDS011;27638;42.184;24.848;2023-05-23T05:05:01;5.45;;;3.83;;
41946;SDS011;27638;42.184;24.848;2023-05-23T05:07:28;4.35;;;3.55;;
41946;SDS011;27638;42.184;24.848;2023-05-23T05:09:54;4.55;;;3.45;;
41946;SDS011;27638;42.184;24.848;2023-05-23T05:12:19;7.20;;;3.92;;
41946;SDS011;27638;42.184;24.848;2023-05-23T05:14:44;4.50;;;3.85;;
41946;SDS011;27638;42.184;24.848;2023-05-23T05:17:10;5.85;;;3.95;;
41946;SDS011;27638;42.184;24.848;2023-05-23T05:19:35;5.13;;;3.40;;
41946;SDS011;27638;42.184;24.848;2023-05-23T05:22:01;5.22;;;3.95;;
41946;SDS011;27638;42.184;24.848;2023-05-23T05:24:26;7.95;;;5.20;;
41946;SDS011;27638;42.184;24.848;2023-05-23T05:26:53;6.95;;;5.78;;
41946;SDS011;27638;42.184;24.848;2023-05-23T05:29:18;7.40;;;6.68;;
41946;SDS011;27638;42.184;24.848;2023-05-23T05:31:44;8.98;;;4.97;;
41946;SDS011;27638;42.184;24.848;2023-05-23T05:34:10;6.78;;;5.22;;
41946;SDS011;27638;42.184;24.848;2023-05-23T05:36:35;6.30;;;4.70;;
41946;SDS011;27638;42.184;24.848;2023-05-23T05:39:01;6.95;;;4.82;;
41946;SDS011;27638;42.184;24.848;2023-05-23T05:41:26;5.03;;;3.78;;
41946;SDS011;27638;42.184;24.848;2023-05-23T05:43:52;6.13;;;4.50;;
41946;SDS011;27638;42.184;24.848;2023-05-23T05:46:17;7.30;;;4.53;;
41946;SDS011;27638;42.184;24.848;2023-05-23T05:48:43;6.10;;;3.60;;
41946;SDS011;27638;42.184;24.848;2023-05-23T05:51:08;5.03;;;3.47;;
41946;SDS011;27638;42.184;24.848;2023-05-23T05:53:33;4.57;;;3.45;;
41946;SDS011;27638;42.184;24.848;2023-05-23T05:55:59;4.43;;;3.95;;
41946;SDS011;27638;42.184;24.848;2023-05-23T05:58:24;5.95;;;4.00;;
41946;SDS011;27638;42.184;24.848;2023-05-23T06:00:50;6.38;;;4.15;;
41946;SDS011;27638;42.184;24.848;2023-05-23T06:03:15;5.13;;;4.55;;
41946;SDS011;27638;42.184;24.848;2023-05-23T06:05:41;4.95;;;4.22;;
41946;SDS011;27638;42.184;24.848;2023-05-23T06:08:07;5.22;;;3.63;;
41946;SDS011;27638;42.184;24.848;2023-05-23T06:10:32;5.20;;;3.58;;
41946;SDS011;27638;42.184;24.848;2023-05-23T06:12:58;4.38;;;4.00;;
41946;SDS011;27638;42.184;24.848;2023-05-23T06:15:24;6.65;;;5.88;;
41946;SDS011;27638;42.184;24.848;2023-05-23T06:17:50;5.30;;;4.28;;
41946;SDS011;27638;42.184;24.848;2023-05-23T06:20:16;5.15;;;4.22;;
41946;SDS011;27638;42.184;24.848;2023-05-23T06:22:41;4.57;;;4.18;;
41946;SDS011;27638;42.184;24.848;2023-05-23T06:25:07;5.03;;;3.95;;
41946;SDS011;27638;42.184;24.848;2023-05-23T06:27:32;4.13;;;3.67;;
41946;SDS011;27638;42.184;24.848;2023-05-23T06:29:58;5.45;;;4.22;;
41946;SDS011;27638;42.184;24.848;2023-05-23T06:32:23;3.85;;;3.30;;
41946;SDS011;27638;42.184;24.848;2023-05-23T06:34:49;5.65;;;3.35;;
41946;SDS011;27638;42.184;24.848;2023-05-23T06:37:14;7.00;;;4.22;;
41946;SDS011;27638;42.184;24.848;2023-05-23T06:39:40;4.60;;;3.75;;
41946;SDS011;27638;42.184;24.848;2023-05-23T06:42:06;5.57;;;4.38;;
41946;SDS011;27638;42.184;24.848;2023-05-23T06:44:31;5.15;;;3.58;;
41946;SDS011;27638;42.184;24.848;2023-05-23T06:46:56;4.43;;;3.03;;
41946;SDS011;27638;42.184;24.848;2023-05-23T06:49:23;5.13;;;3.30;;
41946;SDS011;27638;42.184;24.848;2023-05-23T06:51:49;4.00;;;3.60;;
41946;SDS011;27638;42.184;24.848;2023-05-23T06:54:15;9.95;;;5.20;;
41946;SDS011;27638;42.184;24.848;2023-05-23T06:56:41;7.18;;;4.63;;
41946;SDS011;27638;42.184;24.848;2023-05-23T06:59:07;6.30;;;3.33;;
41946;SDS011;27638;42.184;24.848;2023-05-23T07:01:32;6.45;;;3.85;;
41946;SDS011;27638;42.184;24.848;2023-05-23T07:03:57;6.13;;;4.85;;
41946;SDS011;27638;42.184;24.848;2023-05-23T07:06:23;3.75;;;3.28;;
41946;SDS011;27638;42.184;24.848;2023-05-23T07:08:49;4.57;;;3.75;;
41946;SDS011;27638;42.184;24.848;2023-05-23T07:11:14;4.63;;;3.30;;
41946;SDS011;27638;42.184;24.848;2023-05-23T07:13:40;6.47;;;4.15;;
41946;SDS011;27638;42.184;24.848;2023-05-23T07:16:05;6.18;;;4.18;;
41946;SDS011;27638;42.184;24.848;2023-05-23T07:18:31;5.68;;;3.80;;
41946;SDS011;27638;42.184;24.848;2023-05-23T07:20:56;7.15;;;4.00;;
41946;SDS011;27638;42.184;24.848;2023-05-23T07:23:22;4.95;;;3.65;;
41946;SDS011;27638;42.184;24.848;2023-05-23T07:25:50;4.97;;;3.47;;
41946;SDS011;27638;42.184;24.848;2023-05-23T07:28:16;3.85;;;3.38;;
41946;SDS011;27638;42.184;24.848;2023-05-23T07:30:41;6.68;;;3.80;;
41946;SDS011;27638;42.184;24.848;2023-05-23T07:33:07;5.72;;;3.63;;
41946;SDS011;27638;42.184;24.848;2023-05-23T07:35:32;4.80;;;3.55;;
41946;SDS011;27638;42.184;24.848;2023-05-23T07:37:58;5.60;;;4.00;;
41946;SDS011;27638;42.184;24.848;2023-05-23T07:40:23;5.72;;;3.53;;
41946;SDS011;27638;42.184;24.848;2023-05-23T07:42:49;4.97;;;4.00;;
41946;SDS011;27638;42.184;24.848;2023-05-23T07:45:14;4.18;;;3.47;;
41946;SDS011;27638;42.184;24.848;2023-05-23T07:47:40;5.20;;;3.53;;
41946;SDS011;27638;42.184;24.848;2023-05-23T07:50:06;4.95;;;3.58;;
41946;SDS011;27638;42.184;24.848;2023-05-23T07:52:33;4.88;;;4.00;;
41946;SDS011;27638;42.184;24.848;2023-05-23T07:54:59;7.07;;;3.78;;
41946;SDS011;27638;42.184;24.848;2023-05-23T07:57:24;4.15;;;3.58;;
41946;SDS011;27638;42.184;24.848;2023-05-23T07:59:51;5.85;;;3.50;;
41946;SDS011;27638;42.184;24.848;2023-05-23T08:02:16;5.15;;;3.63;;
41946;SDS011;27638;42.184;24.848;2023-05-23T08:04:42;7.10;;;3.90;;
41946;SDS011;27638;42.184;24.848;2023-05-23T08:07:09;6.47;;;3.63;;
41946;SDS011;27638;42.184;24.848;2023-05-23T08:09:35;5.10;;;3.70;;
41946;SDS011;27638;42.184;24.848;2023-05-23T08:12:01;4.55;;;3.40;;
41946;SDS011;27638;42.184;24.848;2023-05-23T08:14:27;6.35;;;3.90;;
41946;SDS011;27638;42.184;24.848;2023-05-23T08:16:53;5.25;;;3.97;;
41946;SDS011;27638;42.184;24.848;2023-05-23T08:19:18;4.13;;;3.60;;
41946;SDS011;27638;42.184;24.848;2023-05-23T08:21:44;3.45;;;3.13;;
41946;SDS011;27638;42.184;24.848;2023-05-23T08:24:10;3.78;;;3.05;;
41946;SDS011;27638;42.184;24.848;2023-05-23T08:26:36;4.15;;;3.42;;
41946;SDS011;27638;42.184;24.848;2023-05-23T08:29:02;5.20;;;3.15;;
41946;SDS011;27638;42.184;24.848;2023-05-23T08:31:28;4.22;;;3.53;;
41946;SDS011;27638;42.184;24.848;2023-05-23T08:33:54;5.85;;;4.10;;
41946;SDS011;27638;42.184;24.848;2023-05-23T08:36:20;5.60;;;3.63;;
41946;SDS011;27638;42.184;24.848;2023-05-23T08:38:45;7.15;;;3.75;;
41946;SDS011;27638;42.184;24.848;2023-05-23T08:41:20;4.45;;;3.40;;
41946;SDS011;27638;42.184;24.848;2023-05-23T08:43:47;5.18;;;3.38;;
41946;SDS011;27638;42.184;24.848;2023-05-23T08:46:13;3.65;;;3.10;;
41946;SDS011;27638;42.184;24.848;2023-05-23T08:48:39;4.53;;;3.45;;
41946;SDS011;27638;42.184;24.848;2023-05-23T08:51:07;7.13;;;3.20;;
41946;SDS011;27638;42.184;24.848;2023-05-23T08:53:36;6.95;;;4.03;;
41946;SDS011;27638;42.184;24.848;2023-05-23T08:56:05;4.32;;;3.35;;
41946;SDS011;27638;42.184;24.848;2023-05-23T08:58:31;4.78;;;3.00;;
41946;SDS011;27638;42.184;24.848;2023-05-23T09:00:59;5.15;;;3.35;;
41946;SDS011;27638;42.184;24.848;2023-05-23T09:03:25;6.40;;;3.97;;
41946;SDS011;27638;42.184;24.848;2023-05-23T09:05:54;3.92;;;3.40;;
41946;SDS011;27638;42.184;24.848;2023-05-23T09:08:21;5.45;;;3.70;;
41946;SDS011;27638;42.184;24.848;2023-05-23T09:10:48;3.80;;;3.28;;
41946;SDS011;27638;42.184;24.848;2023-05-23T09:13:14;5.13;;;3.55;;
41946;SDS011;27638;42.184;24.848;2023-05-23T09:18:25;5.68;;;3.58;;
41946;SDS011;27638;42.184;24.848;2023-05-23T09:20:51;5.40;;;3.67;;
41946;SDS011;27638;42.184;24.848;2023-05-23T09:23:17;4.45;;;3.50;;
41946;SDS011;27638;42.184;24.848;2023-05-23T09:25:46;4.95;;;3.30;;
41946;SDS011;27638;42.184;24.848;2023-05-23T09:28:12;4.40;;;3.60;;
41946;SDS011;27638;42.184;24.848;2023-05-23T09:30:37;4.10;;;3.20;;
41946;SDS011;27638;42.184;24.848;2023-05-23T09:33:03;6.22;;;3.75;;
41946;SDS011;27638;42.184;24.848;2023-05-23T09:35:29;5.75;;;3.60;;
41946;SDS011;27638;42.184;24.848;2023-05-23T09:37:55;4.93;;;3.92;;
41946;SDS011;27638;42.184;24.848;2023-05-23T09:40:29;6.72;;;4.40;;
41946;SDS011;27638;42.184;24.848;2023-05-23T09:43:04;4.88;;;3.47;;
41946;SDS011;27638;42.184;24.848;2023-05-23T09:45:31;4.80;;;3.47;;
41946;SDS011;27638;42.184;24.848;2023-05-23T09:47:57;5.13;;;3.72;;
41946;SDS011;27638;42.184;24.848;2023-05-23T09:50:29;5.07;;;3.55;;
41946;SDS011;27638;42.184;24.848;2023-05-23T09:52:57;6.63;;;3.80;;
41946;SDS011;27638;42.184;24.848;2023-05-23T09:55:22;4.43;;;3.58;;
41946;SDS011;27638;42.184;24.848;2023-05-23T09:57:49;4.38;;;3.60;;
41946;SDS011;27638;42.184;24.848;2023-05-23T10:00:18;4.13;;;3.72;;
41946;SDS011;27638;42.184;24.848;2023-05-23T10:05:52;5.15;;;4.32;;
41946;SDS011;27638;42.184;24.848;2023-05-23T10:08:26;4.47;;;3.17;;
41946;SDS011;27638;42.184;24.848;2023-05-23T10:14:00;5.55;;;3.70;;
41946;SDS011;27638;42.184;24.848;2023-05-23T10:19:24;4.30;;;3.50;;
41946;SDS011;27638;42.184;24.848;2023-05-23T10:21:58;4.55;;;3.38;;
41946;SDS011;27638;42.184;24.848;2023-05-23T10:24:26;4.57;;;3.63;;
41946;SDS011;27638;42.184;24.848;2023-05-23T10:26:52;4.10;;;3.70;;
41946;SDS011;27638;42.184;24.848;2023-05-23T10:29:20;7.28;;;4.28;;
41946;SDS011;27638;42.184;24.848;2023-05-23T10:31:47;4.35;;;3.67;;
41946;SDS011;27638;42.184;24.848;2023-05-23T10:45:20;4.72;;;3.40;;
41946;SDS011;27638;42.184;24.848;2023-05-23T10:47:47;3.88;;;3.10;;
41946;SDS011;27638;42.184;24.848;2023-05-23T10:50:35;6.18;;;3.80;;
41946;SDS011;27638;42.184;24.848;2023-05-23T10:53:04;3.72;;;3.42;;
41946;SDS011;27638;42.184;24.848;2023-05-23T10:55:31;4.63;;;3.47;;
41946;SDS011;27638;42.184;24.848;2023-05-23T11:03:18;3.58;;;3.28;;
41946;SDS011;27638;42.184;24.848;2023-05-23T11:05:47;4.47;;;3.47;;
41946;SDS011;27638;42.184;24.848;2023-05-23T11:08:18;7.55;;;3.55;;
41946;SDS011;27638;42.184;24.848;2023-05-23T11:10:54;3.50;;;3.20;;
41946;SDS011;27638;42.184;24.848;2023-05-23T11:13:24;4.90;;;3.78;;
41946;SDS011;27638;42.184;24.848;2023-05-23T11:15:49;7.07;;;3.67;;
41946;SDS011;27638;42.184;24.848;2023-05-23T11:18:19;5.10;;;3.63;;
41946;SDS011;27638;42.184;24.848;2023-05-23T11:20:55;7.13;;;3.72;;
41946;SDS011;27638;42.184;24.848;2023-05-23T11:23:24;4.00;;;3.08;;
41946;SDS011;27638;42.184;24.848;2023-05-23T11:26:05;4.60;;;3.47;;
41946;SDS011;27638;42.184;24.848;2023-05-23T11:28:55;3.67;;;3.30;;
41946;SDS011;27638;42.184;24.848;2023-05-23T11:31:21;4.55;;;3.50;;
41946;SDS011;27638;42.184;24.848;2023-05-23T11:33:49;6.10;;;3.78;;
41946;SDS011;27638;42.184;24.848;2023-05-23T11:36:15;4.60;;;3.92;;
41946;SDS011;27638;42.184;24.848;2023-05-23T11:38:41;4.50;;;3.47;;
41946;SDS011;27638;42.184;24.848;2023-05-23T11:41:06;3.85;;;3.47;;
41946;SDS011;27638;42.184;24.848;2023-05-23T11:43:32;3.45;;;3.15;;
41946;SDS011;27638;42.184;24.848;2023-05-23T11:45:57;4.88;;;3.30;;
41946;SDS011;27638;42.184;24.848;2023-05-23T11:48:32;5.95;;;3.75;;
41946;SDS011;27638;42.184;24.848;2023-05-23T11:50:57;5.03;;;4.13;;
41946;SDS011;27638;42.184;24.848;2023-05-23T11:53:25;4.57;;;3.83;;
41946;SDS011;27638;42.184;24.848;2023-05-23T11:55:54;7.22;;;4.25;;
41946;SDS011;27638;42.184;24.848;2023-05-23T11:58:25;6.35;;;3.92;;
41946;SDS011;27638;42.184;24.848;2023-05-23T12:01:02;6.30;;;3.33;;
41946;SDS011;27638;42.184;24.848;2023-05-23T12:03:29;6.97;;;3.60;;
41946;SDS011;27638;42.184;24.848;2023-05-23T12:05:55;4.03;;;3.33;;
41946;SDS011;27638;42.184;24.848;2023-05-23T12:08:21;4.57;;;3.90;;
41946;SDS011;27638;42.184;24.848;2023-05-23T12:10:57;5.80;;;3.80;;
41946;SDS011;27638;42.184;24.848;2023-05-23T12:13:25;4.05;;;3.65;;
41946;SDS011;27638;42.184;24.848;2023-05-23T12:15:55;3.40;;;3.10;;
41946;SDS011;27638;42.184;24.848;2023-05-23T12:18:22;4.20;;;3.80;;
41946;SDS011;27638;42.184;24.848;2023-05-23T12:20:48;4.78;;;3.42;;
41946;SDS011;27638;42.184;24.848;2023-05-23T12:23:20;3.65;;;2.70;;
41946;SDS011;27638;42.184;24.848;2023-05-23T12:25:50;5.72;;;2.90;;
41946;SDS011;27638;42.184;24.848;2023-05-23T12:28:16;4.22;;;2.75;;
41946;SDS011;27638;42.184;24.848;2023-05-23T12:30:42;4.05;;;3.22;;
41946;SDS011;27638;42.184;24.848;2023-05-23T12:33:08;4.20;;;3.03;;
41946;SDS011;27638;42.184;24.848;2023-05-23T12:35:34;3.30;;;2.97;;
41946;SDS011;27638;42.184;24.848;2023-05-23T12:38:00;7.80;;;3.47;;
41946;SDS011;27638;42.184;24.848;2023-05-23T12:40:25;4.20;;;3.20;;
41946;SDS011;27638;42.184;24.848;2023-05-23T12:42:52;5.22;;;3.38;;
41946;SDS011;27638;42.184;24.848;2023-05-23T12:45:19;4.40;;;3.83;;
41946;SDS011;27638;42.184;24.848;2023-05-23T12:48:05;4.65;;;3.38;;
41946;SDS011;27638;42.184;24.848;2023-05-23T12:50:34;3.55;;;3.22;;
41946;SDS011;27638;42.184;24.848;2023-05-23T12:53:00;4.15;;;3.67;;
41946;SDS011;27638;42.184;24.848;2023-05-23T12:55:25;4.00;;;3.10;;
41946;SDS011;27638;42.184;24.848;2023-05-23T12:57:51;4.68;;;3.70;;
41946;SDS011;27638;42.184;24.848;2023-05-23T13:00:16;3.40;;;3.10;;
41946;SDS011;27638;42.184;24.848;2023-05-23T13:02:43;4.10;;;3.15;;
41946;SDS011;27638;42.184;24.848;2023-05-23T13:05:09;7.25;;;3.40;;
41946;SDS011;27638;42.184;24.848;2023-05-23T13:07:34;4.32;;;3.03;;
41946;SDS011;27638;42.184;24.848;2023-05-23T13:10:00;3.95;;;3.05;;
41946;SDS011;27638;42.184;24.848;2023-05-23T13:12:26;2.97;;;2.65;;
41946;SDS011;27638;42.184;24.848;2023-05-23T13:14:52;4.45;;;2.80;;
41946;SDS011;27638;42.184;24.848;2023-05-23T13:17:18;3.53;;;2.90;;
41946;SDS011;27638;42.184;24.848;2023-05-23T13:19:43;3.75;;;2.95;;
41946;SDS011;27638;42.184;24.848;2023-05-23T13:22:09;3.90;;;3.38;;
41946;SDS011;27638;42.184;24.848;2023-05-23T13:24:38;4.15;;;2.88;;
41946;SDS011;27638;42.184;24.848;2023-05-23T13:27:05;5.88;;;4.95;;
41946;SDS011;27638;42.184;24.848;2023-05-23T13:29:31;4.70;;;2.97;;
41946;SDS011;27638;42.184;24.848;2023-05-23T13:31:58;3.90;;;3.22;;
41946;SDS011;27638;42.184;24.848;2023-05-23T13:34:23;3.17;;;2.88;;
41946;SDS011;27638;42.184;24.848;2023-05-23T13:36:50;4.63;;;3.65;;
41946;SDS011;27638;42.184;24.848;2023-05-23T13:39:16;3.83;;;3.20;;
41946;SDS011;27638;42.184;24.848;2023-05-23T13:41:41;3.60;;;2.78;;
41946;SDS011;27638;42.184;24.848;2023-05-23T13:44:07;3.67;;;3.10;;
41946;SDS011;27638;42.184;24.848;2023-05-23T13:46:32;3.40;;;2.97;;
41946;SDS011;27638;42.184;24.848;2023-05-23T13:48:57;3.78;;;3.40;;
41946;SDS011;27638;42.184;24.848;2023-05-23T13:51:23;3.60;;;3.05;;
41946;SDS011;27638;42.184;24.848;2023-05-23T13:53:48;5.88;;;2.72;;
41946;SDS011;27638;42.184;24.848;2023-05-23T13:56:14;3.33;;;3.03;;
41946;SDS011;27638;42.184;24.848;2023-05-23T13:58:39;3.35;;;3.00;;
41946;SDS011;27638;42.184;24.848;2023-05-23T14:01:06;3.80;;;2.75;;
41946;SDS011;27638;42.184;24.848;2023-05-23T14:03:32;3.28;;;2.97;;
41946;SDS011;27638;42.184;24.848;2023-05-23T14:05:58;4.07;;;2.97;;
41946;SDS011;27638;42.184;24.848;2023-05-23T14:08:23;4.28;;;3.50;;
41946;SDS011;27638;42.184;24.848;2023-05-23T14:10:49;2.92;;;2.70;;
41946;SDS011;27638;42.184;24.848;2023-05-23T14:13:15;4.57;;;3.47;;
41946;SDS011;27638;42.184;24.848;2023-05-23T14:15:41;4.03;;;2.78;;
41946;SDS011;27638;42.184;24.848;2023-05-23T14:18:06;3.28;;;2.88;;
41946;SDS011;27638;42.184;24.848;2023-05-23T14:20:32;3.05;;;2.75;;
41946;SDS011;27638;42.184;24.848;2023-05-23T14:22:57;4.05;;;2.83;;
41946;SDS011;27638;42.184;24.848;2023-05-23T14:25:23;5.35;;;3.25;;
41946;SDS011;27638;42.184;24.848;2023-05-23T14:27:48;4.65;;;3.00;;
41946;SDS011;27638;42.184;24.848;2023-05-23T14:30:14;3.60;;;3.05;;
41946;SDS011;27638;42.184;24.848;2023-05-23T14:32:40;4.70;;;3.47;;
41946;SDS011;27638;42.184;24.848;2023-05-23T14:35:05;6.63;;;4.07;;
41946;SDS011;27638;42.184;24.848;2023-05-23T14:37:33;4.07;;;3.63;;
41946;SDS011;27638;42.184;24.848;2023-05-23T14:39:59;3.85;;;3.55;;
41946;SDS011;27638;42.184;24.848;2023-05-23T14:42:24;3.95;;;3.47;;
41946;SDS011;27638;42.184;24.848;2023-05-23T14:44:51;4.18;;;3.72;;
41946;SDS011;27638;42.184;24.848;2023-05-23T14:47:17;6.85;;;4.00;;
41946;SDS011;27638;42.184;24.848;2023-05-23T14:49:43;8.70;;;4.07;;
41946;SDS011;27638;42.184;24.848;2023-05-23T14:52:08;6.25;;;3.72;;
41946;SDS011;27638;42.184;24.848;2023-05-23T14:54:34;6.63;;;4.18;;
41946;SDS011;27638;42.184;24.848;2023-05-23T14:57:00;5.22;;;4.00;;
41946;SDS011;27638;42.184;24.848;2023-05-23T14:59:27;4.28;;;3.88;;
41946;SDS011;27638;42.184;24.848;2023-05-23T15:01:53;5.78;;;3.88;;
41946;SDS011;27638;42.184;24.848;2023-05-23T15:04:18;4.82;;;3.90;;
41946;SDS011;27638;42.184;24.848;2023-05-23T15:06:44;4.72;;;3.83;;
41946;SDS011;27638;42.184;24.848;2023-05-23T15:09:11;5.90;;;3.70;;